createdAt,value
2023-01-25T00:34:04.251Z,2.96
2023-01-25T00:35:04.190Z,2.96
2023-01-25T00:36:04.262Z,2.92
2023-01-25T00:37:04.182Z,2.89
2023-01-25T00:38:04.151Z,2.99
2023-01-25T00:39:04.146Z,3.06
2023-01-25T00:40:04.131Z,3.06
2023-01-25T00:41:04.135Z,3.08
2023-01-25T00:42:04.111Z,3.05
2023-01-25T00:43:04.117Z,3.02
2023-01-25T00:44:04.094Z,3.10
2023-01-25T00:45:09.467Z,3.03
2023-01-25T00:46:04.124Z,3.00
2023-01-25T00:47:04.069Z,3.05
2023-01-25T00:48:04.048Z,3.00
2023-01-25T00:49:04.035Z,2.99
2023-01-25T00:50:04.064Z,3.03
2023-01-25T00:51:04.048Z,3.05
2023-01-25T00:52:04.019Z,3.02
2023-01-25T00:53:03.991Z,2.90
2023-01-25T00:54:03.979Z,2.95
2023-01-25T00:55:03.976Z,3.02
2023-01-25T00:56:08.988Z,3.08
2023-01-25T00:57:03.953Z,2.99
2023-01-25T00:58:03.951Z,2.99
2023-01-25T00:59:03.935Z,2.97
2023-01-25T01:00:03.910Z,2.95
2023-01-25T01:01:03.946Z,2.93
2023-01-25T01:02:03.888Z,2.93
2023-01-25T01:03:03.880Z,3.08
2023-01-25T01:04:05.714Z,3.06
2023-01-25T01:05:03.890Z,3.05
2023-01-25T01:06:03.901Z,3.03
2023-01-25T01:07:08.858Z,3.05
2023-01-25T01:08:03.824Z,3.10
2023-01-25T01:09:03.821Z,3.06
2023-01-25T01:10:03.799Z,3.08
2023-01-25T01:11:03.788Z,3.03
2023-01-25T01:12:03.797Z,3.05
2023-01-25T01:13:03.787Z,3.00
2023-01-25T01:14:03.761Z,3.06
2023-01-25T01:15:03.742Z,3.08
2023-01-25T01:16:03.744Z,3.06
2023-01-25T01:17:03.796Z,3.08
2023-01-25T01:18:08.757Z,3.03
2023-01-25T01:19:03.696Z,3.05
2023-01-25T01:20:03.686Z,3.05
2023-01-25T01:21:03.702Z,3.05
2023-01-25T01:22:03.714Z,3.00
2023-01-25T01:23:03.678Z,3.08
2023-01-25T01:24:03.709Z,3.06
2023-01-25T01:25:03.636Z,3.08
2023-01-25T01:26:03.625Z,3.08
2023-01-25T01:27:03.657Z,3.06
2023-01-25T01:28:03.600Z,3.11
2023-01-25T01:29:08.703Z,3.08
2023-01-25T01:30:03.575Z,3.02
2023-01-25T01:31:03.561Z,3.11
2023-01-25T01:32:03.696Z,3.06
2023-01-25T01:33:03.539Z,3.15
2023-01-25T01:34:03.534Z,3.18
2023-01-25T01:35:03.517Z,3.06
2023-01-25T01:36:03.509Z,3.13
2023-01-25T01:37:03.503Z,3.08
2023-01-25T01:38:03.521Z,3.10
2023-01-25T01:39:03.472Z,3.08
2023-01-25T01:40:08.488Z,3.06
2023-01-25T01:41:03.466Z,3.06
2023-01-25T01:42:03.449Z,3.03
2023-01-25T01:43:03.432Z,3.05
2023-01-25T01:44:03.421Z,3.03
2023-01-25T01:45:03.422Z,3.11
2023-01-25T01:46:03.541Z,3.03
2023-01-25T01:47:03.395Z,3.03
2023-01-25T01:48:03.392Z,3.06
2023-01-25T01:49:03.374Z,3.06
2023-01-25T01:50:03.351Z,3.05
2023-01-25T01:51:08.365Z,3.05
2023-01-25T01:52:03.399Z,3.05
2023-01-25T01:53:03.342Z,2.96
2023-01-25T01:54:03.339Z,2.96
2023-01-25T01:55:03.294Z,3.05
2023-01-25T01:56:03.283Z,2.96
2023-01-25T01:57:03.333Z,2.96
2023-01-25T01:58:03.259Z,3.08
2023-01-25T01:59:03.249Z,3.06
2023-01-25T02:00:03.244Z,3.02
2023-01-25T02:01:03.279Z,3.06
2023-01-25T02:02:08.278Z,3.08
2023-01-25T02:03:03.212Z,3.10
2023-01-25T02:04:03.215Z,3.05
2023-01-25T02:05:03.184Z,2.95
2023-01-25T02:06:03.172Z,2.99
2023-01-25T02:07:03.169Z,2.89
2023-01-25T02:08:03.152Z,2.95
2023-01-25T02:09:03.192Z,3.00
2023-01-25T02:10:03.146Z,2.92
2023-01-25T02:11:03.113Z,2.92
2023-01-25T02:12:03.105Z,2.92
2023-01-25T02:13:08.126Z,2.92
2023-01-25T02:14:03.077Z,2.95
2023-01-25T02:15:03.068Z,2.81
2023-01-25T02:16:03.143Z,2.79
2023-01-25T02:17:03.060Z,2.89
2023-01-25T02:18:03.049Z,2.85
2023-01-25T02:19:03.062Z,2.77
2023-01-25T02:20:03.032Z,2.78
2023-01-25T02:21:03.000Z,2.81
2023-01-25T02:22:02.994Z,2.84
2023-01-25T02:23:03.000Z,2.92
2023-01-25T02:24:08.036Z,2.87
2023-01-25T02:25:02.963Z,2.89
2023-01-25T02:26:02.967Z,2.92
2023-01-25T02:27:02.961Z,2.92
2023-01-25T02:28:02.940Z,2.95
2023-01-25T02:29:02.915Z,2.93
2023-01-25T02:30:02.911Z,2.95
2023-01-25T02:31:02.964Z,2.96
2023-01-25T02:32:02.944Z,2.92
2023-01-25T02:33:02.945Z,2.92
2023-01-25T02:34:02.861Z,2.92
2023-01-25T02:35:08.215Z,2.79
2023-01-25T02:36:02.837Z,2.77
2023-01-25T02:37:02.823Z,2.92
2023-01-25T02:38:02.825Z,2.78
2023-01-25T02:39:02.827Z,2.89
2023-01-25T02:40:02.844Z,2.78
2023-01-25T02:41:02.782Z,2.78
2023-01-25T02:42:02.834Z,2.85
2023-01-25T02:43:02.781Z,2.89
2023-01-25T02:44:02.752Z,2.95
2023-01-25T02:45:02.734Z,2.90
2023-01-25T02:46:07.815Z,2.92
2023-01-25T02:47:02.715Z,2.75
2023-01-25T02:48:02.716Z,2.92
2023-01-25T02:49:02.696Z,2.90
2023-01-25T02:50:02.695Z,2.92
2023-01-25T02:51:02.672Z,2.79
2023-01-25T02:52:02.667Z,2.81
2023-01-25T02:53:02.659Z,2.69
2023-01-25T02:54:02.652Z,2.74
2023-01-25T02:55:02.627Z,2.81
2023-01-25T02:56:02.629Z,2.84
2023-01-25T02:57:07.646Z,2.82
2023-01-25T02:58:02.616Z,2.81
2023-01-25T02:59:02.595Z,2.72
2023-01-25T03:00:02.577Z,2.79
2023-01-25T03:01:02.572Z,2.78
2023-01-25T03:02:02.553Z,2.82
2023-01-25T03:03:02.584Z,2.69
2023-01-25T03:04:02.544Z,2.75
2023-01-25T03:05:02.513Z,2.79
2023-01-25T03:06:02.511Z,2.75
2023-01-25T03:07:02.565Z,2.78
2023-01-25T03:08:07.504Z,2.79
2023-01-25T03:09:02.486Z,2.78
2023-01-25T03:10:02.511Z,2.77
2023-01-25T03:11:02.447Z,2.82
2023-01-25T03:12:02.461Z,2.81
2023-01-25T03:13:02.447Z,2.89
2023-01-25T03:14:02.535Z,2.89
2023-01-25T03:15:02.423Z,2.81
2023-01-25T03:16:02.446Z,2.89
2023-01-25T03:17:02.383Z,2.81
2023-01-25T03:18:04.360Z,2.82
2023-01-25T03:19:07.396Z,2.79
2023-01-25T03:20:02.350Z,2.78
2023-01-25T03:21:02.344Z,2.75
2023-01-25T03:22:02.389Z,2.78
2023-01-25T03:23:02.316Z,2.81
2023-01-25T03:24:02.417Z,2.78
2023-01-25T03:25:02.328Z,2.81
2023-01-25T03:26:02.300Z,2.81
2023-01-25T03:27:02.275Z,2.77
2023-01-25T03:28:02.271Z,2.78
2023-01-25T03:29:02.300Z,2.77
2023-01-25T03:30:07.317Z,2.74
2023-01-25T03:31:02.421Z,2.74
2023-01-25T03:32:02.358Z,2.78
2023-01-25T03:33:02.208Z,2.79
2023-01-25T03:34:02.239Z,2.77
2023-01-25T03:35:02.254Z,2.74
2023-01-25T03:36:02.220Z,2.79
2023-01-25T03:37:02.190Z,2.77
2023-01-25T03:38:02.261Z,2.78
2023-01-25T03:39:02.203Z,2.67
2023-01-25T03:40:02.156Z,2.77
2023-01-25T03:41:07.139Z,2.71
2023-01-25T03:42:02.118Z,2.72
2023-01-25T03:43:02.097Z,2.71
2023-01-25T03:44:02.606Z,2.67
2023-01-25T03:45:02.091Z,2.74
2023-01-25T03:46:02.096Z,2.71
2023-01-25T03:47:02.151Z,2.71
2023-01-25T03:48:02.038Z,2.79
2023-01-25T03:49:02.081Z,2.77
2023-01-25T03:50:02.017Z,2.75
2023-01-25T03:51:02.023Z,2.79
2023-01-25T03:52:07.011Z,2.71
2023-01-25T03:53:01.979Z,2.63
2023-01-25T03:54:01.982Z,2.78
2023-01-25T03:55:01.995Z,2.77
2023-01-25T03:56:02.005Z,2.75
2023-01-25T03:57:01.941Z,2.75
2023-01-25T03:58:01.940Z,2.72
2023-01-25T03:59:01.918Z,2.74
2023-01-25T04:00:01.916Z,2.77
2023-01-25T04:01:02.009Z,2.74
2023-01-25T04:02:01.991Z,2.72
2023-01-25T04:03:06.903Z,2.75
2023-01-25T04:04:01.865Z,2.77
2023-01-25T04:05:01.889Z,2.72
2023-01-25T04:06:01.843Z,2.77
2023-01-25T04:07:01.832Z,2.71
2023-01-25T04:08:01.840Z,2.74
2023-01-25T04:09:01.807Z,2.78
2023-01-25T04:10:01.830Z,2.81
2023-01-25T04:11:01.784Z,2.72
2023-01-25T04:12:01.781Z,2.72
2023-01-25T04:13:01.755Z,2.69
2023-01-25T04:14:06.778Z,2.71
2023-01-25T04:15:01.796Z,2.64
2023-01-25T04:16:01.725Z,2.79
2023-01-25T04:17:01.739Z,2.72
2023-01-25T04:18:01.708Z,2.74
2023-01-25T04:19:01.691Z,2.79
2023-01-25T04:20:01.745Z,2.85
2023-01-25T04:21:01.714Z,2.72
2023-01-25T04:22:01.659Z,2.72
2023-01-25T04:23:01.664Z,2.78
2023-01-25T04:24:01.757Z,2.75
2023-01-25T04:25:07.204Z,2.71
2023-01-25T04:26:01.634Z,2.79
2023-01-25T04:27:01.605Z,2.77
2023-01-25T04:28:01.597Z,2.81
2023-01-25T04:29:01.625Z,2.81
2023-01-25T04:30:01.618Z,2.81
2023-01-25T04:31:01.559Z,2.84
2023-01-25T04:32:01.680Z,2.82
2023-01-25T04:33:01.559Z,2.75
2023-01-25T04:34:01.572Z,2.81
2023-01-25T04:35:01.531Z,2.81
2023-01-25T04:36:06.536Z,2.77
2023-01-25T04:37:01.486Z,2.79
2023-01-25T04:38:01.481Z,2.75
2023-01-25T04:39:01.476Z,2.85
2023-01-25T04:40:01.499Z,2.81
2023-01-25T04:41:01.443Z,2.81
2023-01-25T04:42:01.517Z,2.82
2023-01-25T04:43:01.425Z,2.87
2023-01-25T04:44:01.416Z,2.74
2023-01-25T04:45:01.834Z,2.74
2023-01-25T04:46:01.498Z,2.79
2023-01-25T04:47:06.436Z,2.78
2023-01-25T04:48:01.367Z,2.81
2023-01-25T04:49:01.375Z,2.79
2023-01-25T04:50:01.386Z,2.79
2023-01-25T04:51:01.336Z,2.79
2023-01-25T04:52:01.363Z,2.74
2023-01-25T04:53:01.313Z,2.69
2023-01-25T04:54:01.374Z,2.72
2023-01-25T04:55:01.311Z,2.71
2023-01-25T04:56:01.305Z,2.67
2023-01-25T04:57:01.288Z,2.69
2023-01-25T04:58:06.288Z,2.71
2023-01-25T04:59:01.248Z,2.72
2023-01-25T05:00:01.247Z,2.77
2023-01-25T05:01:01.355Z,2.71
2023-01-25T05:02:01.315Z,2.71
2023-01-25T05:03:01.202Z,2.74
2023-01-25T05:04:01.209Z,2.71
2023-01-25T05:05:01.215Z,2.69
2023-01-25T05:06:01.179Z,2.64
2023-01-25T05:07:01.160Z,2.71
2023-01-25T05:08:01.150Z,2.61
2023-01-25T05:09:06.160Z,2.54
2023-01-25T05:10:01.133Z,2.66
2023-01-25T05:11:01.116Z,2.66
2023-01-25T05:12:01.106Z,2.67
2023-01-25T05:13:01.096Z,2.59
2023-01-25T05:14:01.089Z,2.67
2023-01-25T05:15:01.085Z,2.60
2023-01-25T05:16:01.063Z,2.71
2023-01-25T05:17:01.110Z,2.71
2023-01-25T05:18:01.044Z,2.69
2023-01-25T05:19:01.057Z,2.75
2023-01-25T05:20:06.077Z,2.67
2023-01-25T05:21:01.003Z,2.74
2023-01-25T05:22:00.997Z,2.79
2023-01-25T05:23:00.979Z,2.72
2023-01-25T05:24:01.053Z,2.63
2023-01-25T05:25:00.996Z,2.54
2023-01-25T05:26:00.950Z,2.60
2023-01-25T05:27:00.955Z,2.59
2023-01-25T05:28:00.924Z,2.57
2023-01-25T05:29:00.913Z,2.56
2023-01-25T05:30:00.921Z,2.56
2023-01-25T05:31:05.951Z,2.48
2023-01-25T05:32:00.959Z,2.57
2023-01-25T05:33:00.892Z,2.54
2023-01-25T05:34:00.855Z,2.59
2023-01-25T05:35:01.157Z,2.60
2023-01-25T05:36:00.854Z,2.59
2023-01-25T05:37:00.838Z,2.60
2023-01-25T05:38:00.826Z,2.56
2023-01-25T05:39:00.807Z,2.53
2023-01-25T05:40:00.809Z,2.56
2023-01-25T05:41:00.794Z,2.61
2023-01-25T05:42:05.802Z,2.56
2023-01-25T05:43:00.765Z,2.49
2023-01-25T05:44:00.781Z,2.43
2023-01-25T05:45:00.745Z,2.39
2023-01-25T05:46:00.815Z,2.45
2023-01-25T05:47:00.727Z,2.38
2023-01-25T05:48:00.775Z,2.43
2023-01-25T05:49:00.688Z,2.36
2023-01-25T05:50:00.688Z,2.38
2023-01-25T05:51:00.727Z,2.35
2023-01-25T05:52:00.751Z,2.35
2023-01-25T05:53:05.690Z,2.36
2023-01-25T05:54:00.650Z,2.43
2023-01-25T05:55:00.651Z,2.36
2023-01-25T05:56:00.617Z,2.24
2023-01-25T05:57:00.606Z,2.25
2023-01-25T05:58:00.589Z,2.25
2023-01-25T05:59:00.581Z,2.23
2023-01-25T06:00:00.598Z,2.25
2023-01-25T06:01:01.815Z,2.23
2023-01-25T06:02:00.583Z,2.21
2023-01-25T06:03:00.652Z,2.30
2023-01-25T06:04:05.555Z,2.28
2023-01-25T06:05:00.526Z,2.30
2023-01-25T06:06:00.495Z,2.30
2023-01-25T06:07:00.491Z,2.30
2023-01-25T06:08:00.505Z,2.28
2023-01-25T06:09:00.491Z,2.34
2023-01-25T06:10:00.471Z,2.39
2023-01-25T06:11:00.456Z,2.35
2023-01-25T06:12:00.462Z,2.34
2023-01-25T06:13:00.420Z,2.46
2023-01-25T06:14:00.408Z,2.34
2023-01-25T06:15:05.442Z,2.43
2023-01-25T06:16:00.435Z,2.41
2023-01-25T06:17:00.424Z,2.42
2023-01-25T06:18:00.372Z,2.43
2023-01-25T06:19:00.354Z,2.42
2023-01-25T06:20:00.383Z,2.39
2023-01-25T06:21:00.355Z,2.36
2023-01-25T06:22:00.330Z,2.36
2023-01-25T06:23:00.311Z,2.36
2023-01-25T06:24:00.382Z,2.36
2023-01-25T06:25:00.301Z,2.30
2023-01-25T06:26:05.305Z,2.28
2023-01-25T06:27:00.270Z,2.24
2023-01-25T06:28:00.257Z,2.30
2023-01-25T06:29:00.250Z,2.23
2023-01-25T06:30:00.256Z,2.31
2023-01-25T06:31:00.269Z,2.31
2023-01-25T06:32:00.238Z,2.28
2023-01-25T06:33:00.212Z,2.31
2023-01-25T06:34:01.183Z,2.35
2023-01-25T06:35:00.187Z,2.34
2023-01-25T06:36:00.178Z,2.36
2023-01-25T06:37:05.179Z,2.31
2023-01-25T06:38:00.152Z,2.34
2023-01-25T06:39:00.140Z,2.36
2023-01-25T06:40:00.167Z,2.34
2023-01-25T06:41:00.150Z,2.38
2023-01-25T06:42:00.101Z,2.42
2023-01-25T06:43:00.095Z,2.31
2023-01-25T06:44:00.140Z,2.39
2023-01-25T06:45:00.122Z,2.28
2023-01-25T06:46:00.089Z,2.36
2023-01-25T06:47:00.047Z,2.35
2023-01-25T06:48:05.061Z,2.38
2023-01-25T06:49:00.043Z,2.39
2023-01-25T06:50:00.020Z,2.38
2023-01-25T06:51:00.026Z,2.30
2023-01-25T06:51:59.996Z,2.35
2023-01-25T06:52:59.987Z,2.31
2023-01-25T06:53:59.972Z,2.36
2023-01-25T06:54:59.976Z,2.35
2023-01-25T06:55:59.988Z,2.34
2023-01-25T06:56:59.939Z,2.24
2023-01-25T06:57:59.927Z,2.24
2023-01-25T06:59:04.944Z,2.23
2023-01-25T06:59:59.905Z,2.23
2023-01-25T07:00:59.907Z,2.23
2023-01-25T07:01:59.960Z,2.30
2023-01-25T07:02:59.985Z,2.24
2023-01-25T07:03:59.871Z,2.21
2023-01-25T07:04:59.852Z,2.28
2023-01-25T07:05:59.882Z,2.25
2023-01-25T07:06:59.838Z,2.28
2023-01-25T07:07:59.822Z,2.30
2023-01-25T07:08:59.808Z,2.25
2023-01-25T07:10:04.822Z,2.31
2023-01-25T07:10:59.797Z,2.30
2023-01-25T07:11:59.893Z,2.30
2023-01-25T07:12:59.764Z,2.39
2023-01-25T07:13:59.759Z,2.38
2023-01-25T07:14:59.747Z,2.41
2023-01-25T07:15:59.752Z,2.43
2023-01-25T07:17:01.035Z,2.39
2023-01-25T07:18:14.800Z,2.35
2023-01-25T07:19:00.700Z,2.41
2023-01-25T07:19:59.691Z,2.34
2023-01-25T07:21:04.729Z,2.38
2023-01-25T07:21:59.724Z,2.41
2023-01-25T07:23:02.056Z,2.34
2023-01-25T07:23:59.694Z,2.28
2023-01-25T07:24:59.635Z,2.34
2023-01-25T07:25:59.631Z,2.31
2023-01-25T07:26:59.644Z,2.27
2023-01-25T07:27:59.623Z,2.27
2023-01-25T07:28:59.593Z,2.31
2023-01-25T07:29:59.577Z,2.30
2023-01-25T07:30:59.578Z,2.39
2023-01-25T07:32:04.593Z,2.34
2023-01-25T07:32:59.552Z,2.24
2023-01-25T07:33:59.565Z,2.27
2023-01-25T07:34:59.528Z,2.24
2023-01-25T07:35:59.522Z,2.18
2023-01-25T07:36:59.508Z,2.27
2023-01-25T07:37:59.507Z,2.27
2023-01-25T07:38:59.480Z,2.28
2023-01-25T07:39:59.472Z,2.27
2023-01-25T07:40:59.480Z,2.28
2023-01-25T07:41:59.455Z,2.27
2023-01-25T07:43:04.480Z,2.34
2023-01-25T07:43:59.430Z,2.30
2023-01-25T07:44:59.424Z,2.38
2023-01-25T07:45:59.415Z,2.38
2023-01-25T07:46:59.394Z,2.41
2023-01-25T07:47:59.381Z,2.38
2023-01-25T07:48:59.383Z,2.38
2023-01-25T07:49:59.359Z,2.41
2023-01-25T07:50:59.360Z,2.45
2023-01-25T07:51:59.342Z,2.52
2023-01-25T07:52:59.333Z,2.52
2023-01-25T07:54:04.348Z,2.52
2023-01-25T07:54:59.324Z,2.42
2023-01-25T07:55:59.302Z,2.35
2023-01-25T07:56:59.299Z,2.45
2023-01-25T07:57:59.273Z,2.56
2023-01-25T07:58:59.377Z,2.56
2023-01-25T07:59:59.263Z,2.56
2023-01-25T08:00:59.273Z,2.57
2023-01-25T08:01:59.232Z,2.53
2023-01-25T08:02:59.222Z,2.61
2023-01-25T08:03:59.226Z,2.60
2023-01-25T08:05:04.224Z,2.54
2023-01-25T08:05:59.197Z,2.57
2023-01-25T08:06:59.181Z,2.53
2023-01-25T08:07:59.181Z,2.53
2023-01-25T08:08:59.153Z,2.48
2023-01-25T08:09:59.153Z,2.48
2023-01-25T08:10:59.144Z,2.48
2023-01-25T08:11:59.152Z,2.43
2023-01-25T08:12:59.112Z,2.43
2023-01-25T08:13:59.098Z,2.49
2023-01-25T08:14:59.179Z,2.39
2023-01-25T08:16:04.127Z,2.35
2023-01-25T08:16:59.067Z,2.41
2023-01-25T08:17:59.064Z,2.42
2023-01-25T08:18:59.047Z,2.38
2023-01-25T08:19:59.034Z,2.43
2023-01-25T08:20:59.036Z,2.39
2023-01-25T08:21:59.042Z,2.45
2023-01-25T08:22:59.003Z,2.48
2023-01-25T08:23:59.125Z,2.60
2023-01-25T08:24:58.978Z,2.43
2023-01-25T08:25:58.981Z,2.56
2023-01-25T08:27:03.983Z,2.53
2023-01-25T08:27:58.950Z,2.49
2023-01-25T08:28:58.947Z,2.57
2023-01-25T08:29:58.927Z,2.57
2023-01-25T08:30:58.954Z,2.57
2023-01-25T08:31:59.053Z,2.66
2023-01-25T08:32:58.889Z,2.60
2023-01-25T08:33:58.926Z,2.60
2023-01-25T08:34:58.884Z,2.59
2023-01-25T08:35:58.873Z,2.57
2023-01-25T08:36:58.894Z,2.60
2023-01-25T08:38:03.859Z,2.59
2023-01-25T08:38:58.845Z,2.59
2023-01-25T08:39:58.819Z,2.60
2023-01-25T08:40:58.813Z,2.69
2023-01-25T08:41:58.801Z,2.64
2023-01-25T08:42:58.783Z,2.60
2023-01-25T08:43:58.788Z,2.59
2023-01-25T08:44:58.760Z,2.60
2023-01-25T08:45:58.752Z,2.71
2023-01-25T08:46:58.778Z,2.60
2023-01-25T08:47:58.734Z,2.69
2023-01-25T08:49:03.812Z,2.56
2023-01-25T08:49:58.710Z,2.53
2023-01-25T08:50:58.702Z,2.59
2023-01-25T08:51:58.698Z,2.64
2023-01-25T08:52:58.688Z,2.63
2023-01-25T08:53:58.661Z,2.66
2023-01-25T08:54:58.657Z,2.69
2023-01-25T08:55:58.647Z,2.63
2023-01-25T08:56:58.657Z,2.59
2023-01-25T08:57:58.649Z,2.66
2023-01-25T08:58:58.606Z,2.71
2023-01-25T09:00:03.619Z,2.60
2023-01-25T09:00:58.622Z,2.66
2023-01-25T09:01:58.611Z,2.56
2023-01-25T09:02:58.581Z,2.60
2023-01-25T09:03:58.593Z,2.59
2023-01-25T09:04:58.543Z,2.63
2023-01-25T09:05:58.545Z,2.69
2023-01-25T09:06:58.539Z,2.66
2023-01-25T09:07:58.515Z,2.60
2023-01-25T09:08:58.508Z,2.66
2023-01-25T09:09:58.490Z,2.71
2023-01-25T09:11:03.502Z,2.69
2023-01-25T09:11:58.483Z,2.52
2023-01-25T09:12:58.469Z,2.61
2023-01-25T09:13:58.442Z,2.57
2023-01-25T09:14:58.429Z,2.57
2023-01-25T09:15:58.422Z,2.57
2023-01-25T09:16:58.422Z,2.57
2023-01-25T09:17:58.400Z,2.59
2023-01-25T09:18:58.414Z,2.60
2023-01-25T09:19:58.393Z,2.60
2023-01-25T09:20:58.371Z,2.60
2023-01-25T09:22:03.395Z,2.61
2023-01-25T09:22:58.341Z,2.64
2023-01-25T09:24:07.255Z,2.56
2023-01-25T09:24:59.321Z,2.63
2023-01-25T09:25:58.309Z,2.69
2023-01-25T09:27:00.128Z,2.57
2023-01-25T09:27:58.296Z,2.60
2023-01-25T09:28:58.277Z,2.66
2023-01-25T09:30:02.132Z,2.69
2023-01-25T09:31:18.529Z,2.74
2023-01-25T09:31:59.409Z,2.64
2023-01-25T09:33:03.325Z,2.56
2023-01-25T09:33:58.226Z,2.67
2023-01-25T09:34:58.233Z,2.63
2023-01-25T09:35:58.203Z,2.60
2023-01-25T09:36:58.197Z,2.54
2023-01-25T09:37:58.179Z,2.59
2023-01-25T09:38:58.175Z,2.63
2023-01-25T09:39:58.153Z,2.61
2023-01-25T09:40:58.163Z,2.59
2023-01-25T09:41:58.437Z,2.54
2023-01-25T09:42:58.118Z,2.52
2023-01-25T09:44:13.794Z,2.61
2023-01-25T09:44:59.101Z,2.60
2023-01-25T09:45:58.160Z,2.61
2023-01-25T09:46:58.095Z,2.61
2023-01-25T09:47:58.099Z,2.53
2023-01-25T09:49:07.393Z,2.57
2023-01-25T09:49:59.043Z,2.60
2023-01-25T09:50:58.050Z,2.64
2023-01-25T09:51:58.036Z,2.57
2023-01-25T09:52:58.008Z,2.69
2023-01-25T09:53:58.001Z,2.60
2023-01-25T09:55:03.007Z,2.61
2023-01-25T09:55:58.009Z,2.56
2023-01-25T09:56:57.983Z,2.57
2023-01-25T09:57:57.963Z,2.59
2023-01-25T09:58:57.944Z,2.57
2023-01-25T09:59:57.932Z,2.54
2023-01-25T10:00:57.927Z,2.60
2023-01-25T10:01:57.982Z,2.60
2023-01-25T10:02:57.961Z,2.60
2023-01-25T10:03:57.892Z,2.71
2023-01-25T10:04:57.880Z,2.59
2023-01-25T10:06:02.914Z,2.56
2023-01-25T10:07:01.786Z,2.67
2023-01-25T10:07:57.868Z,2.56
2023-01-25T10:08:57.847Z,2.71
2023-01-25T10:09:57.821Z,2.67
2023-01-25T10:10:57.856Z,2.78
2023-01-25T10:11:57.805Z,2.75
2023-01-25T10:12:57.812Z,2.69
2023-01-25T10:13:57.786Z,2.74
2023-01-25T10:14:57.774Z,2.72
2023-01-25T10:15:57.791Z,2.67
2023-01-25T10:17:02.763Z,2.66
2023-01-25T10:17:57.744Z,2.69
2023-01-25T10:18:57.726Z,2.63
2023-01-25T10:19:57.720Z,2.69
2023-01-25T10:20:57.696Z,2.74
2023-01-25T10:21:57.715Z,2.72
2023-01-25T10:22:57.682Z,2.71
2023-01-25T10:23:57.744Z,2.69
2023-01-25T10:24:57.660Z,2.72
2023-01-25T10:25:57.641Z,2.71
2023-01-25T10:26:57.627Z,2.75
2023-01-25T10:28:02.656Z,2.79
2023-01-25T10:28:57.610Z,2.77
2023-01-25T10:29:57.597Z,2.84
2023-01-25T10:30:57.789Z,2.81
2023-01-25T10:31:57.627Z,2.72
2023-01-25T10:32:57.602Z,2.75
2023-01-25T10:33:57.551Z,2.77
2023-01-25T10:34:57.818Z,2.78
2023-01-25T10:35:57.534Z,2.72
2023-01-25T10:36:57.518Z,2.78
2023-01-25T10:37:57.525Z,2.78
2023-01-25T10:39:02.525Z,2.85
2023-01-25T10:39:57.484Z,2.78
2023-01-25T10:40:57.477Z,2.90
2023-01-25T10:41:57.475Z,2.90
2023-01-25T10:42:57.450Z,2.89
2023-01-25T10:43:57.453Z,2.92
2023-01-25T10:44:57.465Z,3.00
2023-01-25T10:45:57.421Z,2.95
2023-01-25T10:46:57.424Z,2.95
2023-01-25T10:47:57.435Z,2.97
2023-01-25T10:48:57.431Z,2.95
2023-01-25T10:50:02.419Z,2.93
2023-01-25T10:50:57.478Z,2.97
2023-01-25T10:51:57.379Z,2.92
2023-01-25T10:52:57.346Z,2.95
2023-01-25T10:53:57.458Z,2.92
2023-01-25T10:54:57.318Z,2.77
2023-01-25T10:55:57.306Z,2.82
2023-01-25T10:56:57.291Z,2.77
2023-01-25T10:57:57.304Z,2.77
2023-01-25T10:58:57.286Z,2.77
2023-01-25T10:59:57.260Z,2.90
2023-01-25T11:01:02.271Z,2.92
2023-01-25T11:01:57.305Z,2.92
2023-01-25T11:02:57.302Z,2.93
2023-01-25T11:03:57.242Z,2.92
2023-01-25T11:04:57.210Z,2.90
2023-01-25T11:05:57.190Z,2.93
2023-01-25T11:06:57.179Z,2.89
2023-01-25T11:07:57.177Z,2.95
2023-01-25T11:08:57.167Z,2.96
2023-01-25T11:09:57.174Z,3.08
2023-01-25T11:10:57.134Z,3.06
2023-01-25T11:12:02.175Z,3.10
2023-01-25T11:12:57.110Z,3.08
2023-01-25T11:13:57.157Z,3.06
2023-01-25T11:14:57.109Z,3.02
2023-01-25T11:15:57.167Z,3.08
2023-01-25T11:16:57.073Z,3.06
2023-01-25T11:17:57.063Z,3.08
2023-01-25T11:18:57.059Z,2.95
2023-01-25T11:19:57.037Z,2.93
2023-01-25T11:20:57.025Z,2.99
2023-01-25T11:21:57.013Z,3.08
2023-01-25T11:23:02.021Z,3.02
2023-01-25T11:23:56.994Z,2.99
2023-01-25T11:24:56.995Z,2.93
2023-01-25T11:25:56.994Z,2.89
2023-01-25T11:26:56.958Z,2.95
2023-01-25T11:27:56.962Z,2.96
2023-01-25T11:28:56.935Z,2.92
2023-01-25T11:29:56.935Z,2.79
2023-01-25T11:30:57.061Z,2.78
2023-01-25T11:31:56.941Z,2.82
2023-01-25T11:32:56.892Z,2.90
2023-01-25T11:34:01.911Z,2.95
2023-01-25T11:34:56.876Z,2.87
2023-01-25T11:35:56.854Z,2.77
2023-01-25T11:36:56.858Z,2.82
2023-01-25T11:37:56.854Z,2.92
2023-01-25T11:38:56.829Z,2.77
2023-01-25T11:39:56.831Z,2.82
2023-01-25T11:40:56.814Z,2.72
2023-01-25T11:41:56.807Z,2.79
2023-01-25T11:42:56.792Z,2.72
2023-01-25T11:43:56.990Z,2.60
2023-01-25T11:45:01.789Z,2.64
2023-01-25T11:45:56.745Z,2.63
2023-01-25T11:46:56.730Z,2.74
2023-01-25T11:47:56.725Z,2.77
2023-01-25T11:48:56.711Z,2.74
2023-01-25T11:49:56.715Z,2.72
2023-01-25T11:50:56.690Z,2.75
2023-01-25T11:51:56.680Z,2.84
2023-01-25T11:52:56.676Z,2.81
2023-01-25T11:53:56.667Z,2.77
2023-01-25T11:54:56.653Z,2.79
2023-01-25T11:56:01.654Z,2.63
2023-01-25T11:56:56.622Z,2.57
2023-01-25T11:57:56.629Z,2.56
2023-01-25T11:58:56.597Z,2.60
2023-01-25T11:59:56.606Z,2.52
2023-01-25T12:00:56.572Z,2.63
2023-01-25T12:01:56.563Z,2.56
2023-01-25T12:02:56.565Z,2.60
2023-01-25T12:03:56.556Z,2.59
2023-01-25T12:04:56.538Z,2.52
2023-01-25T12:05:56.520Z,2.60
2023-01-25T12:07:01.554Z,2.71
2023-01-25T12:07:56.497Z,2.71
2023-01-25T12:08:56.491Z,2.77
2023-01-25T12:09:56.495Z,2.74
2023-01-25T12:10:56.473Z,2.75
2023-01-25T12:11:56.450Z,2.81
2023-01-25T12:12:56.457Z,2.75
2023-01-25T12:13:56.487Z,2.87
2023-01-25T12:14:56.441Z,2.92
2023-01-25T12:15:56.449Z,2.92
2023-01-25T12:16:56.447Z,2.97
2023-01-25T12:18:01.408Z,2.96
2023-01-25T12:18:56.371Z,3.03
2023-01-25T12:19:56.374Z,3.05
2023-01-25T12:20:56.352Z,3.05
2023-01-25T12:21:56.339Z,3.05
2023-01-25T12:22:56.340Z,3.08
2023-01-25T12:23:56.342Z,3.18
2023-01-25T12:24:56.305Z,3.06
2023-01-25T12:25:56.317Z,3.08
2023-01-25T12:26:56.292Z,3.06
2023-01-25T12:27:56.277Z,3.05
2023-01-25T12:29:01.300Z,3.02
2023-01-25T12:29:56.263Z,3.10
2023-01-25T12:30:56.428Z,3.03
2023-01-25T12:31:56.244Z,3.10
2023-01-25T12:33:02.493Z,3.10
2023-01-25T12:33:57.208Z,3.13
2023-01-25T12:34:56.192Z,3.03
2023-01-25T12:35:56.192Z,3.02
2023-01-25T12:36:56.172Z,3.05
2023-01-25T12:37:56.165Z,3.03
2023-01-25T12:38:56.145Z,2.96
2023-01-25T12:40:01.172Z,2.93
2023-01-25T12:40:56.145Z,2.95
2023-01-25T12:41:56.124Z,2.93
2023-01-25T12:42:56.111Z,2.95
2023-01-25T12:43:56.091Z,3.00
2023-01-25T12:44:56.115Z,3.03
2023-01-25T12:45:56.089Z,3.08
2023-01-25T12:46:56.124Z,3.10
2023-01-25T12:47:56.051Z,3.03
2023-01-25T12:48:56.044Z,3.11
2023-01-25T12:49:56.027Z,3.08
2023-01-25T12:51:01.061Z,3.14
2023-01-25T12:51:56.007Z,3.06
2023-01-25T12:52:55.987Z,3.14
2023-01-25T12:53:55.980Z,3.21
2023-01-25T12:54:57.019Z,3.24
2023-01-25T12:55:55.974Z,3.29
2023-01-25T12:56:55.950Z,3.31
2023-01-25T12:57:55.941Z,3.23
2023-01-25T12:58:55.925Z,3.31
2023-01-25T12:59:55.927Z,3.32
2023-01-25T13:00:56.111Z,3.32
2023-01-25T13:02:01.046Z,3.40
2023-01-25T13:02:55.877Z,3.40
2023-01-25T13:03:55.867Z,3.35
2023-01-25T13:04:55.855Z,3.33
2023-01-25T13:05:55.868Z,3.33
2023-01-25T13:06:55.836Z,3.36
2023-01-25T13:07:55.855Z,3.18
2023-01-25T13:08:55.817Z,3.24
2023-01-25T13:09:55.801Z,3.03
2023-01-25T13:10:55.807Z,3.05
2023-01-25T13:11:55.777Z,3.02
2023-01-25T13:13:00.801Z,3.02
2023-01-25T13:13:55.759Z,2.95
2023-01-25T13:14:55.755Z,2.92
2023-01-25T13:15:55.757Z,2.89
2023-01-25T13:17:09.446Z,2.92
2023-01-25T13:17:56.711Z,2.85
2023-01-25T13:18:55.699Z,2.92
2023-01-25T13:19:55.687Z,2.97
2023-01-25T13:20:55.700Z,3.05
2023-01-25T13:21:55.677Z,3.06
2023-01-25T13:22:55.654Z,3.10
2023-01-25T13:24:00.697Z,3.20
2023-01-25T13:24:55.664Z,3.17
2023-01-25T13:25:55.639Z,3.28
2023-01-25T13:26:55.611Z,3.31
2023-01-25T13:27:55.597Z,3.33
2023-01-25T13:28:55.596Z,3.35
2023-01-25T13:29:55.582Z,3.42
2023-01-25T13:30:55.604Z,3.32
2023-01-25T13:31:58.798Z,3.31
2023-01-25T13:32:55.607Z,3.36
2023-01-25T13:33:55.533Z,3.32
2023-01-25T13:35:00.555Z,3.28
2023-01-25T13:35:55.532Z,3.28
2023-01-25T13:36:55.497Z,3.28
2023-01-25T13:37:55.492Z,3.31
2023-01-25T13:38:55.482Z,3.35
2023-01-25T13:39:55.471Z,3.42
2023-01-25T13:40:55.452Z,3.42
2023-01-25T13:41:55.451Z,3.33
2023-01-25T13:42:55.434Z,3.21
2023-01-25T13:43:55.427Z,3.18
2023-01-25T13:44:55.407Z,3.26
2023-01-25T13:46:00.452Z,3.29
2023-01-25T13:46:55.405Z,3.18
2023-01-25T13:47:55.378Z,3.11
2023-01-25T13:48:55.386Z,3.11
2023-01-25T13:49:55.352Z,3.08
2023-01-25T13:50:55.351Z,3.10
2023-01-25T13:51:55.339Z,3.05